Time;durP1;ratioP1;P1;durP2;ratioP2;P2;SDS_P1;SDS_P2;PMS_P1;PMS_P2;Temp;Humidity;BMP_temperature;BMP_pressure;BME280_temperature;BME280_humidity;BME280_pressure;Samples;Min_cycle;Max_cycle;Signal;HPM_P1;HPM_P2
2022/08/01 00:00:21;;;;;;;32.60;31.20;;;21.30;66.10;;;;;;4966653;28;20492;-67
2022/08/01 00:02:48;;;;;;;30.80;29.40;;;21.30;66.00;;;;;;4968778;28;20578;-67
2022/08/01 00:05:15;;;;;;;30.57;29.07;;;21.30;65.80;;;;;;4965964;28;20550;-69
2022/08/01 00:07:42;;;;;;;30.13;28.83;;;21.30;65.70;;;;;;4968860;28;20463;-69
2022/08/01 00:10:11;;;;;;;30.83;29.40;;;21.30;65.30;;;;;;4966126;28;20518;-69
2022/08/01 00:12:40;;;;;;;30.80;29.40;;;21.30;65.30;;;;;;4967867;28;20584;-69
2022/08/01 00:15:09;;;;;;;32.57;31.07;;;21.30;65.40;;;;;;4962258;28;20530;-69
2022/08/01 00:17:36;;;;;;;32.43;30.93;;;21.30;65.40;;;;;;4965944;28;20823;-69
2022/08/01 00:20:06;;;;;;;29.80;28.50;;;21.30;65.60;;;;;;4965002;28;20832;-70
2022/08/01 00:22:33;;;;;;;29.70;28.07;;;21.30;65.70;;;;;;4965633;28;20494;-69
2022/08/01 00:25:00;;;;;;;30.07;28.57;;;21.30;65.80;;;;;;4966578;28;20463;-69
2022/08/01 00:27:27;;;;;;;29.63;28.33;;;21.30;65.40;;;;;;4968359;28;20500;-69
2022/08/01 00:29:56;;;;;;;31.67;30.17;;;21.30;65.50;;;;;;4966726;28;20479;-70
2022/08/01 00:32:23;;;;;;;30.60;29.30;;;21.30;66.00;;;;;;4972357;28;20601;-69
2022/08/01 00:34:50;;;;;;;29.30;28.00;;;21.30;65.80;;;;;;4970144;28;20483;-69
2022/08/01 00:37:17;;;;;;;29.97;28.67;;;21.20;65.80;;;;;;4972357;28;20554;-69
2022/08/01 00:39:44;;;;;;;29.73;28.20;;;21.30;65.50;;;;;;4972779;28;20562;-69
2022/08/01 00:42:12;;;;;;;30.30;28.90;;;21.30;65.60;;;;;;4970858;28;20769;-68
2022/08/01 00:44:40;;;;;;;29.93;28.63;;;21.30;65.60;;;;;;4970358;28;20543;-69
2022/08/01 00:47:09;;;;;;;31.13;29.73;;;21.30;65.40;;;;;;4970930;28;21048;-70
2022/08/01 00:49:36;;;;;;;31.87;30.30;;;21.30;65.50;;;;;;4963380;28;20482;-69
2022/08/01 00:52:04;;;;;;;31.70;30.30;;;21.20;65.50;;;;;;4966422;28;20575;-69
2022/08/01 00:54:32;;;;;;;30.83;29.33;;;21.20;65.60;;;;;;4971337;28;20463;-69
2022/08/01 00:56:59;;;;;;;30.80;29.40;;;21.20;65.60;;;;;;4969866;28;20543;-69
2022/08/01 00:59:27;;;;;;;29.40;28.00;;;21.30;65.30;;;;;;4968361;28;20480;-69
2022/08/01 01:01:54;;;;;;;28.83;27.33;;;21.30;65.20;;;;;;4971111;28;20545;-69
2022/08/01 01:04:22;;;;;;;29.00;27.70;;;21.30;65.20;;;;;;4969753;28;20508;-69
2022/08/01 01:06:58;;;;;;;29.43;27.93;;;21.30;65.50;;;;;;4969465;28;20648;-69
2022/08/01 01:09:34;;;;;;;29.40;27.97;;;21.30;65.50;;;;;;4967870;28;20984;-69
2022/08/01 01:12:13;;;;;;;29.20;27.90;;;21.30;65.40;;;;;;4971165;28;20576;-69
2022/08/01 01:14:46;;;;;;;29.60;28.20;;;21.30;65.40;;;;;;4969196;28;21160;-69
2022/08/01 01:17:17;;;;;;;30.00;28.40;;;21.30;65.40;;;;;;4964784;28;20837;-68
2022/08/01 01:19:52;;;;;;;30.53;28.90;;;21.30;65.60;;;;;;4968262;28;21875;-69
2022/08/01 01:22:27;;;;;;;30.83;29.23;;;21.20;65.70;;;;;;4972884;28;20548;-69
2022/08/01 01:25:20;;;;;;;31.57;30.17;;;21.30;65.80;;;;;;4961816;28;21003;-69
2022/08/01 01:27:54;;;;;;;32.43;30.93;;;21.30;65.90;;;;;;4968769;28;20581;-69
2022/08/01 01:30:26;;;;;;;30.17;28.77;;;21.20;66.10;;;;;;4970274;28;20562;-69
2022/08/01 01:32:56;;;;;;;31.07;29.33;;;21.20;65.90;;;;;;4970206;28;20488;-69
2022/08/01 01:35:26;;;;;;;29.60;28.20;;;21.20;66.00;;;;;;4968354;28;20561;-69
2022/08/01 01:37:57;;;;;;;29.63;28.33;;;21.20;66.20;;;;;;4971273;28;20545;-69
2022/08/01 01:40:26;;;;;;;29.53;28.23;;;21.10;66.40;;;;;;4964346;28;20490;-69
2022/08/01 01:42:56;;;;;;;30.57;29.07;;;21.10;66.50;;;;;;4966154;28;20571;-69
2022/08/01 01:45:26;;;;;;;32.70;31.30;;;21.10;66.60;;;;;;4967704;28;20906;-69
2022/08/01 01:47:55;;;;;;;33.03;31.20;;;21.10;66.50;;;;;;4968189;28;20502;-69
2022/08/01 01:50:23;;;;;;;32.83;31.30;;;21.10;66.70;;;;;;4969146;28;20903;-69
2022/08/01 01:52:51;;;;;;;29.87;28.33;;;21.10;66.60;;;;;;4969735;28;20973;-69
2022/08/01 01:55:20;;;;;;;31.33;29.93;;;21.10;66.70;;;;;;4969045;28;20545;-69
2022/08/01 01:57:49;;;;;;;31.83;30.43;;;21.10;66.60;;;;;;4969387;28;20486;-69
2022/08/01 02:00:17;;;;;;;30.80;29.30;;;21.10;66.80;;;;;;4967467;28;20984;-69
2022/08/01 02:02:46;;;;;;;30.30;28.87;;;21.10;66.90;;;;;;4969064;28;20555;-67
2022/08/01 02:05:14;;;;;;;33.30;31.73;;;21.20;66.60;;;;;;4969700;28;20463;-67
2022/08/01 02:07:42;;;;;;;33.43;31.83;;;21.10;66.70;;;;;;4968752;28;20469;-67
2022/08/01 02:10:12;;;;;;;34.83;33.33;;;21.20;66.80;;;;;;4968666;28;20482;-67
2022/08/01 02:12:45;;;;;;;36.87;35.27;;;21.10;67.00;;;;;;4967458;28;20492;-67
2022/08/01 02:15:13;;;;;;;35.43;33.83;;;21.00;67.20;;;;;;4966881;28;20466;-67
2022/08/01 02:17:45;;;;;;;34.50;32.90;;;21.00;67.40;;;;;;4966864;28;20467;-69
2022/08/01 02:20:14;;;;;;;32.17;30.67;;;21.00;67.60;;;;;;4968471;28;20558;-69
2022/08/01 02:22:45;;;;;;;31.23;29.73;;;21.00;67.50;;;;;;4970059;28;20473;-69
2022/08/01 02:25:20;;;;;;;38.03;36.03;;;21.00;67.50;;;;;;4966740;28;20492;-69
2022/08/01 02:27:52;;;;;;;34.90;33.30;;;21.00;67.60;;;;;;4969644;28;21016;-70
2022/08/01 02:30:21;;;;;;;32.40;30.83;;;21.00;67.70;;;;;;4967089;28;20477;-67
2022/08/01 02:32:52;;;;;;;31.90;30.50;;;20.90;68.00;;;;;;4969313;28;20566;-67
2022/08/01 02:35:24;;;;;;;33.40;32.00;;;20.90;68.00;;;;;;4966741;28;20463;-67
2022/08/01 02:37:52;;;;;;;31.80;30.40;;;20.90;68.10;;;;;;4967668;28;20566;-67
2022/08/01 02:40:19;;;;;;;36.17;34.57;;;20.80;68.20;;;;;;4967979;28;20579;-67
2022/08/01 02:42:50;;;;;;;30.27;28.87;;;20.80;68.60;;;;;;4970755;28;20530;-67
2022/08/01 02:45:19;;;;;;;34.10;32.70;;;20.80;68.70;;;;;;4962679;28;20964;-67
2022/08/01 02:47:48;;;;;;;32.37;30.77;;;20.80;68.60;;;;;;4968441;28;20470;-67
2022/08/01 02:50:16;;;;;;;37.20;35.60;;;20.80;68.70;;;;;;4968891;28;21086;-67
2022/08/01 02:52:46;;;;;;;35.47;33.87;;;20.80;68.80;;;;;;4967195;28;21074;-67
2022/08/01 02:55:14;;;;;;;36.30;34.70;;;20.80;68.90;;;;;;4962179;28;20959;-67
2022/08/01 02:57:43;;;;;;;32.03;30.53;;;20.80;69.10;;;;;;4970163;28;20465;-69
2022/08/01 03:00:11;;;;;;;35.40;33.80;;;20.80;69.00;;;;;;4968814;28;20537;-69
2022/08/01 03:02:39;;;;;;;31.60;30.10;;;20.80;69.00;;;;;;4968730;28;20983;-69
2022/08/01 03:05:09;;;;;;;38.20;36.30;;;20.80;69.00;;;;;;4967646;28;21037;-69
2022/08/01 03:07:38;;;;;;;44.63;42.33;;;20.80;69.20;;;;;;4968774;28;20458;-69
2022/08/01 03:10:09;;;;;;;30.80;29.50;;;20.80;69.30;;;;;;4968451;28;20490;-69
2022/08/01 03:12:38;;;;;;;47.77;45.57;;;20.70;69.30;;;;;;4969002;28;20576;-69
2022/08/01 03:15:07;;;;;;;40.77;38.67;;;20.80;69.30;;;;;;4968106;28;20967;-69
2022/08/01 03:17:35;;;;;;;45.07;42.93;;;20.70;69.70;;;;;;4965043;28;20470;-69
2022/08/01 03:20:04;;;;;;;33.87;32.17;;;20.60;70.00;;;;;;4967260;28;20493;-69
2022/08/01 03:22:33;;;;;;;39.90;37.90;;;20.60;70.10;;;;;;4969210;28;20462;-69
2022/08/01 03:25:03;;;;;;;39.97;38.07;;;20.60;70.40;;;;;;4966899;28;20558;-69
2022/08/01 03:27:32;;;;;;;42.33;40.40;;;20.60;70.60;;;;;;4969209;28;20471;-69
2022/08/01 03:30:00;;;;;;;36.37;34.63;;;20.50;70.70;;;;;;4969463;28;20523;-69
2022/08/01 03:32:29;;;;;;;48.57;46.20;;;20.50;70.80;;;;;;4968902;28;20564;-69
2022/08/01 03:34:56;;;;;;;39.50;37.63;;;20.60;71.00;;;;;;4967568;28;20476;-69
2022/08/01 03:37:26;;;;;;;77.60;74.20;;;20.60;70.70;;;;;;4969363;28;21018;-71
2022/08/01 03:39:58;;;;;;;41.23;39.20;;;20.60;70.70;;;;;;4964438;28;20513;-69
2022/08/01 03:42:32;;;;;;;33.30;31.80;;;20.70;70.60;;;;;;4964343;28;20462;-69
2022/08/01 03:45:05;;;;;;;35.53;33.90;;;20.60;70.80;;;;;;4965570;28;20902;-69
2022/08/01 03:47:35;;;;;;;33.20;31.60;;;20.60;71.20;;;;;;4964373;28;20490;-69
2022/08/01 03:50:03;;;;;;;39.73;37.90;;;20.60;71.30;;;;;;4967134;28;20683;-69
2022/08/01 03:52:32;;;;;;;38.20;36.43;;;20.60;71.20;;;;;;4966620;28;20477;-69
2022/08/01 03:55:03;;;;;;;43.00;41.00;;;20.60;71.20;;;;;;4968815;28;21015;-69
2022/08/01 03:57:31;;;;;;;34.40;32.70;;;20.60;71.30;;;;;;4969509;28;20487;-69
2022/08/01 04:00:00;;;;;;;47.80;45.50;;;20.50;71.40;;;;;;4967120;28;20569;-69
2022/08/01 04:02:28;;;;;;;31.73;30.23;;;20.50;71.70;;;;;;4967443;28;20544;-69
2022/08/01 04:04:55;;;;;;;42.40;40.60;;;20.50;71.60;;;;;;4961932;28;20596;-69
2022/08/01 04:07:23;;;;;;;32.87;31.37;;;20.60;71.70;;;;;;4970159;28;20468;-69
2022/08/01 04:09:51;;;;;;;37.30;35.60;;;20.60;71.40;;;;;;4966735;28;20492;-69
2022/08/01 04:12:18;;;;;;;39.23;37.43;;;20.70;71.40;;;;;;4967584;28;20982;-69
2022/08/01 04:14:45;;;;;;;35.60;33.87;;;20.80;71.30;;;;;;4968787;28;20474;-73
2022/08/01 04:17:14;;;;;;;38.00;36.30;;;20.80;71.20;;;;;;4963334;28;20489;-74
2022/08/01 04:19:42;;;;;;;59.90;57.10;;;20.80;71.20;;;;;;4968218;28;20472;-75
2022/08/01 04:22:10;;;;;;;39.90;38.07;;;20.90;71.10;;;;;;4967383;28;20557;-72
2022/08/01 04:24:38;;;;;;;60.53;57.63;;;21.10;70.70;;;;;;4966937;28;20850;-69
2022/08/01 04:27:10;;;;;;;61.67;58.77;;;21.10;70.50;;;;;;4969219;28;20461;-69
2022/08/01 04:29:38;;;;;;;47.77;45.70;;;21.20;70.40;;;;;;4966530;28;20869;-69
2022/08/01 04:32:08;;;;;;;43.80;41.83;;;21.30;70.40;;;;;;4966886;28;20562;-69
2022/08/01 04:34:40;;;;;;;35.27;33.77;;;21.40;70.00;;;;;;4968012;28;21003;-69
2022/08/01 04:37:10;;;;;;;38.60;36.80;;;21.40;69.80;;;;;;4967072;28;20457;-69
2022/08/01 04:39:40;;;;;;;41.13;39.33;;;21.50;69.80;;;;;;4968039;28;20475;-68
2022/08/01 04:42:09;;;;;;;40.70;38.87;;;21.60;69.60;;;;;;4967028;28;20486;-69
2022/08/01 04:44:36;;;;;;;44.50;42.50;;;21.60;69.60;;;;;;4967284;28;20551;-69
2022/08/01 04:47:04;;;;;;;46.53;44.50;;;21.70;69.40;;;;;;4971902;28;20992;-69
2022/08/01 04:49:32;;;;;;;52.67;50.33;;;21.70;69.50;;;;;;4961280;28;20922;-69
2022/08/01 04:52:01;;;;;;;32.93;31.43;;;21.80;69.50;;;;;;4965400;28;20460;-70
2022/08/01 04:54:29;;;;;;;48.10;45.97;;;21.90;69.20;;;;;;4964406;28;20479;-70
2022/08/01 04:56:59;;;;;;;33.40;31.80;;;21.90;69.20;;;;;;4968632;28;20461;-70
2022/08/01 04:59:41;;;;;;;74.87;71.77;;;22.00;69.10;;;;;;4966651;28;20563;-69
2022/08/01 05:02:10;;;;;;;43.77;41.87;;;22.00;69.00;;;;;;4957682;28;20535;-71
2022/08/01 05:04:39;;;;;;;48.67;46.53;;;22.10;69.00;;;;;;4957913;28;20561;-70
2022/08/01 05:07:08;;;;;;;37.47;35.87;;;22.10;69.10;;;;;;4961747;28;20493;-76
2022/08/01 05:09:36;;;;;;;50.57;48.33;;;22.10;69.20;;;;;;4967668;28;20485;-74
2022/08/01 05:12:08;;;;;;;41.97;40.17;;;22.00;69.20;;;;;;4968708;28;20531;-77
2022/08/01 05:14:36;;;;;;;38.83;37.13;;;22.10;69.20;;;;;;4967592;28;21011;-74
2022/08/01 05:17:06;;;;;;;43.17;41.17;;;22.20;69.20;;;;;;4969352;28;20527;-76
2022/08/01 05:19:33;;;;;;;33.53;32.03;;;22.20;69.00;;;;;;4972078;28;20492;-79
2022/08/01 05:22:01;;;;;;;34.60;32.90;;;22.00;69.40;;;;;;4972748;28;20457;-75
2022/08/01 05:24:29;;;;;;;53.57;51.10;;;22.00;69.90;;;;;;4968414;28;20872;-74
2022/08/01 05:26:57;;;;;;;39.70;38.00;;;22.00;69.70;;;;;;4967215;28;20572;-72
2022/08/01 05:29:24;;;;;;;58.20;55.60;;;22.10;69.60;;;;;;4967962;28;20583;-73
2022/08/01 05:31:52;;;;;;;38.83;37.10;;;22.30;69.50;;;;;;4971461;28;20459;-69
2022/08/01 05:34:19;;;;;;;36.40;34.70;;;22.40;69.00;;;;;;4969046;28;20729;-68
2022/08/01 05:36:46;;;;;;;59.23;56.43;;;22.50;68.80;;;;;;4973714;28;20497;-67
2022/08/01 05:39:14;;;;;;;41.50;39.70;;;22.60;68.80;;;;;;4971037;28;20490;-67
2022/08/01 05:41:42;;;;;;;40.50;38.80;;;22.70;68.80;;;;;;4971394;28;21027;-69
2022/08/01 05:44:10;;;;;;;44.27;42.20;;;22.80;68.60;;;;;;4969958;28;20870;-75
2022/08/01 05:46:37;;;;;;;48.40;46.23;;;22.90;68.60;;;;;;4967167;28;20971;-76
2022/08/01 05:49:05;;;;;;;53.07;50.40;;;23.00;68.40;;;;;;4970539;28;20481;-67
2022/08/01 05:51:32;;;;;;;35.70;34.20;;;23.20;68.20;;;;;;4958685;28;20559;-67
2022/08/01 05:54:00;;;;;;;43.57;41.70;;;23.30;68.30;;;;;;4970431;28;20557;-68
2022/08/01 05:56:27;;;;;;;36.97;35.10;;;23.40;67.80;;;;;;4970388;28;20507;-69
2022/08/01 05:58:55;;;;;;;50.53;48.07;;;23.50;67.70;;;;;;4969317;28;20876;-66
2022/08/01 06:01:22;;;;;;;40.30;38.43;;;23.60;67.50;;;;;;4971523;28;20996;-67
2022/08/01 06:03:49;;;;;;;46.10;44.13;;;23.70;67.20;;;;;;4972387;28;21013;-67
2022/08/01 06:06:16;;;;;;;53.27;50.97;;;23.70;67.10;;;;;;4969189;28;20555;-67
2022/08/01 06:08:43;;;;;;;42.93;41.20;;;23.90;66.90;;;;;;4964006;28;20562;-67
2022/08/01 06:11:10;;;;;;;54.47;52.07;;;23.90;66.70;;;;;;4971293;28;20518;-67
2022/08/01 06:13:37;;;;;;;49.77;47.37;;;23.90;66.90;;;;;;4969214;28;21055;-67
2022/08/01 06:16:06;;;;;;;43.90;42.10;;;24.00;66.60;;;;;;4969522;28;20755;-69
2022/08/01 06:18:33;;;;;;;40.03;38.43;;;24.00;66.70;;;;;;4969707;28;20828;-69
2022/08/01 06:21:00;;;;;;;62.03;59.33;;;23.90;66.90;;;;;;4968415;28;20574;-70
2022/08/01 06:23:27;;;;;;;51.80;49.50;;;23.90;67.10;;;;;;4970035;28;20455;-70
2022/08/01 06:25:54;;;;;;;41.70;40.00;;;23.90;67.10;;;;;;4968901;28;22247;-69
2022/08/01 06:28:21;;;;;;;40.50;38.90;;;24.10;67.10;;;;;;4967058;28;20592;-68
2022/08/01 06:30:48;;;;;;;57.60;55.20;;;24.20;66.70;;;;;;4967903;28;20573;-69
2022/08/01 06:33:17;;;;;;;59.30;56.60;;;24.20;66.70;;;;;;4972033;28;20507;-68
2022/08/01 06:35:44;;;;;;;43.70;41.90;;;24.30;66.50;;;;;;4968295;28;21029;-66
2022/08/01 06:38:11;;;;;;;45.70;43.90;;;24.30;66.50;;;;;;4968965;28;20546;-67
2022/08/01 06:40:38;;;;;;;55.20;52.60;;;24.00;67.00;;;;;;4970933;28;21005;-65
2022/08/01 06:43:05;;;;;;;54.23;51.93;;;24.00;67.20;;;;;;4969195;28;20489;-69
2022/08/01 06:45:32;;;;;;;51.37;48.93;;;24.10;67.20;;;;;;4970979;28;20547;-67
2022/08/01 06:47:59;;;;;;;41.60;39.70;;;24.10;67.10;;;;;;4971159;28;20542;-67
2022/08/01 06:50:27;;;;;;;37.10;35.50;;;24.20;68.60;;;;;;4967958;28;20479;-67
2022/08/01 06:52:54;;;;;;;40.87;39.17;;;24.40;66.40;;;;;;4962894;28;20550;-68
2022/08/01 06:55:21;;;;;;;44.30;42.47;;;24.60;65.80;;;;;;4968655;28;20489;-67
2022/08/01 06:57:49;;;;;;;40.77;39.13;;;24.70;65.50;;;;;;4970922;28;20538;-67
2022/08/01 07:00:22;;;;;;;56.57;53.97;;;24.80;64.80;;;;;;4969031;28;20565;-67
2022/08/01 07:02:49;;;;;;;44.47;42.60;;;24.90;64.80;;;;;;4967542;28;20471;-69
2022/08/01 07:05:19;;;;;;;53.97;51.60;;;25.00;64.50;;;;;;4969620;28;20546;-68
2022/08/01 07:07:47;;;;;;;38.03;36.43;;;25.10;64.50;;;;;;4971555;28;20463;-69
2022/08/01 07:10:14;;;;;;;42.80;41.00;;;25.20;64.10;;;;;;4970859;28;20562;-69
2022/08/01 07:12:41;;;;;;;61.97;59.07;;;25.20;63.90;;;;;;4970549;28;21005;-67
2022/08/01 07:15:13;;;;;;;40.27;38.67;;;25.30;63.70;;;;;;4968727;28;20484;-67
2022/08/01 07:17:40;;;;;;;47.80;45.83;;;25.40;63.40;;;;;;4970816;28;20463;-66
2022/08/01 07:20:09;;;;;;;52.27;49.70;;;25.50;63.00;;;;;;4970851;28;21070;-71
2022/08/01 07:22:36;;;;;;;56.63;54.13;;;25.40;62.80;;;;;;4971463;28;21053;-69
2022/08/01 07:25:05;;;;;;;40.47;38.77;;;25.50;62.80;;;;;;4967741;28;20547;-67
2022/08/01 07:27:32;;;;;;;41.73;39.93;;;25.60;62.40;;;;;;4970629;28;20545;-67
2022/08/01 07:29:59;;;;;;;43.20;41.40;;;25.40;62.20;;;;;;4969227;28;20899;-68
2022/08/01 07:32:26;;;;;;;36.93;35.43;;;25.10;63.20;;;;;;4969882;28;20498;-67
2022/08/01 07:34:53;;;;;;;40.07;38.37;;;25.20;63.20;;;;;;4967992;28;20919;-69
2022/08/01 07:37:20;;;;;;;36.23;34.43;;;25.20;63.30;;;;;;4971032;28;20547;-67
2022/08/01 07:39:47;;;;;;;39.70;38.00;;;25.40;63.00;;;;;;4960580;28;20488;-68
2022/08/01 07:42:16;;;;;;;40.53;38.77;;;25.60;62.40;;;;;;4970196;28;20461;-70
2022/08/01 07:44:43;;;;;;;46.70;44.83;;;25.90;61.20;;;;;;4968109;28;20477;-67
2022/08/01 07:47:10;;;;;;;53.10;50.60;;;25.80;61.30;;;;;;4971576;28;20465;-67
2022/08/01 07:49:37;;;;;;;44.20;42.37;;;26.10;61.20;;;;;;4969557;28;21067;-67
2022/08/01 07:52:04;;;;;;;51.80;49.50;;;26.50;60.20;;;;;;4969850;28;20538;-69
2022/08/01 07:54:31;;;;;;;42.10;40.20;;;26.80;59.90;;;;;;4967585;28;21499;-69
2022/08/01 07:56:58;;;;;;;61.30;58.50;;;27.10;59.20;;;;;;4971512;28;20558;-70
2022/08/01 07:59:27;;;;;;;38.17;36.50;;;27.30;58.60;;;;;;4969634;28;21127;-70
2022/08/01 08:01:54;;;;;;;40.13;38.47;;;27.30;57.90;;;;;;4968965;28;20469;-69
2022/08/01 08:04:21;;;;;;;40.40;38.70;;;27.30;57.50;;;;;;4968782;28;20973;-70
2022/08/01 08:06:48;;;;;;;47.40;45.40;;;27.20;57.60;;;;;;4971440;28;20462;-70
2022/08/01 08:09:16;;;;;;;36.87;35.27;;;27.20;57.40;;;;;;4969436;28;20487;-70
2022/08/01 08:11:44;;;;;;;44.70;42.63;;;27.30;57.20;;;;;;4969773;28;20567;-69
2022/08/01 08:14:11;;;;;;;38.27;36.67;;;27.30;57.30;;;;;;4967330;28;20495;-71
2022/08/01 08:16:39;;;;;;;59.10;56.40;;;27.40;57.40;;;;;;4969298;28;20466;-71
2022/08/01 08:19:06;;;;;;;44.97;43.07;;;27.70;56.90;;;;;;4967859;28;20475;-70
2022/08/01 08:21:33;;;;;;;46.10;44.10;;;27.90;56.30;;;;;;4970974;28;20584;-70
2022/08/01 08:26:44;;;;;;;38.27;36.50;;;27.30;57.30;;;;;;4980608;28;20802;-71
2022/08/01 08:29:11;;;;;;;53.93;51.53;;;27.10;57.90;;;;;;4962769;28;20490;-70
2022/08/01 08:31:40;;;;;;;57.00;54.33;;;27.00;58.10;;;;;;4968117;28;20461;-72
2022/08/01 08:34:07;;;;;;;42.20;40.40;;;26.70;58.90;;;;;;4968970;28;20483;-70
2022/08/01 08:36:37;;;;;;;55.50;53.10;;;26.70;59.20;;;;;;4971156;28;20960;-70
2022/08/01 08:39:04;;;;;;;46.47;44.17;;;26.80;58.70;;;;;;4969734;28;20487;-68
2022/08/01 08:41:31;;;;;;;53.63;51.33;;;26.80;58.70;;;;;;4966822;28;20565;-68
2022/08/01 08:43:58;;;;;;;54.07;51.67;;;26.50;59.30;;;;;;4966316;28;20467;-71
2022/08/01 08:46:27;;;;;;;53.03;50.63;;;26.40;59.70;;;;;;4970899;28;20957;-71
2022/08/01 08:48:56;;;;;;;61.60;58.60;;;26.50;59.80;;;;;;4966910;28;20540;-69
2022/08/01 08:51:26;;;;;;;49.23;47.07;;;26.50;59.70;;;;;;4966730;28;20471;-69
2022/08/01 08:53:55;;;;;;;41.40;39.60;;;26.50;59.40;;;;;;4973651;28;20524;-69
2022/08/01 08:56:26;;;;;;;47.03;44.90;;;26.60;59.50;;;;;;4972791;28;20558;-69
2022/08/01 08:58:53;;;;;;;48.57;46.27;;;26.90;59.50;;;;;;4972694;28;20465;-70
2022/08/01 09:01:20;;;;;;;54.40;51.50;;;27.30;58.80;;;;;;4972516;28;20521;-70
2022/08/01 09:03:49;;;;;;;44.63;42.73;;;27.50;57.90;;;;;;4974551;28;20547;-69
2022/08/01 09:06:17;;;;;;;44.60;42.57;;;27.40;58.20;;;;;;4971677;28;20478;-70
2022/08/01 09:08:44;;;;;;;45.33;43.33;;;27.40;58.20;;;;;;4974078;28;20558;-70
2022/08/01 09:11:11;;;;;;;43.00;41.10;;;27.60;57.80;;;;;;4970637;28;20467;-71
2022/08/01 09:13:38;;;;;;;41.30;39.27;;;27.50;57.50;;;;;;4974428;28;20498;-70
2022/08/01 09:16:06;;;;;;;52.93;50.43;;;27.40;57.80;;;;;;4970930;28;20485;-70
2022/08/01 09:18:35;;;;;;;40.33;38.43;;;27.40;57.90;;;;;;4972145;28;20545;-72
2022/08/01 09:21:17;;;;;;;46.37;44.03;;;27.30;58.00;;;;;;4972129;28;20490;-72
2022/08/01 09:23:47;;;;;;;43.77;41.70;;;27.60;57.50;;;;;;4968151;28;20554;-75
2022/08/01 09:26:16;;;;;;;43.07;41.07;;;27.80;57.40;;;;;;4972860;28;20526;-69
2022/08/01 09:28:44;;;;;;;55.10;52.47;;;28.00;56.30;;;;;;4973477;28;20491;-72
2022/08/01 09:31:13;;;;;;;65.80;62.60;;;27.90;56.50;;;;;;4970076;28;20510;-69
2022/08/01 09:33:52;;;;;;;59.07;56.17;;;27.60;56.80;;;;;;4962453;28;20976;-69
2022/08/01 09:36:22;;;;;;;48.97;46.63;;;27.60;57.20;;;;;;4973548;28;21081;-70
2022/08/01 09:38:51;;;;;;;50.23;47.63;;;27.50;57.60;;;;;;4975223;28;20470;-71
2022/08/01 09:41:18;;;;;;;53.60;51.00;;;27.50;57.50;;;;;;4971675;28;20474;-72
2022/08/01 09:43:54;;;;;;;45.00;42.70;;;27.30;57.80;;;;;;4972247;28;21170;-72
2022/08/01 09:46:21;;;;;;;49.90;47.30;;;27.40;57.80;;;;;;4971690;28;20460;-69
2022/08/01 09:49:02;;;;;;;57.20;54.30;;;27.40;57.90;;;;;;4972588;28;20549;-70
2022/08/01 09:51:33;;;;;;;63.80;60.63;;;27.50;57.50;;;;;;4971572;28;20553;-68
2022/08/01 09:54:00;;;;;;;48.47;46.17;;;27.80;57.00;;;;;;4972367;28;20459;-70
2022/08/01 09:56:35;;;;;;;50.30;47.80;;;27.90;56.60;;;;;;4971876;28;20541;-69
2022/08/01 09:59:02;;;;;;;51.50;48.90;;;27.60;57.00;;;;;;4972554;28;20562;-69
2022/08/01 10:01:42;;;;;;;58.73;55.83;;;27.50;57.50;;;;;;4971869;28;20546;-68
2022/08/01 10:04:11;;;;;;;44.90;42.67;;;27.40;57.80;;;;;;4972679;28;20455;-70
2022/08/01 10:06:42;;;;;;;42.50;40.17;;;27.20;58.20;;;;;;4971166;28;20559;-69
2022/08/01 10:09:09;;;;;;;50.97;48.20;;;27.30;58.20;;;;;;4972685;28;20489;-68
2022/08/01 10:11:38;;;;;;;40.33;38.33;;;27.70;57.30;;;;;;4972232;28;20545;-73
2022/08/01 10:14:08;;;;;;;58.10;55.27;;;27.80;57.10;;;;;;4971040;28;20917;-74
2022/08/01 10:16:36;;;;;;;43.77;41.47;;;27.70;57.40;;;;;;4967361;28;20458;-74
2022/08/01 10:19:06;;;;;;;52.43;49.67;;;27.70;57.40;;;;;;4969366;28;20483;-73
2022/08/01 10:21:35;;;;;;;49.80;47.30;;;27.60;57.60;;;;;;4958996;28;20471;-72
2022/08/01 10:24:06;;;;;;;39.70;37.50;;;27.40;57.80;;;;;;4961798;28;21026;-71
2022/08/01 10:26:34;;;;;;;58.47;55.60;;;27.30;58.10;;;;;;4961687;28;20972;-73
2022/08/01 10:29:02;;;;;;;51.83;49.33;;;27.50;57.80;;;;;;4961747;28;20515;-72
2022/08/01 10:31:32;;;;;;;46.23;44.07;;;27.70;57.40;;;;;;4961706;28;20467;-71
2022/08/01 10:34:00;;;;;;;54.77;52.07;;;27.80;56.40;;;;;;4957589;28;20482;-71
2022/08/01 10:36:28;;;;;;;48.13;45.73;;;27.90;57.00;;;;;;4955972;28;20511;-71
2022/08/01 10:38:56;;;;;;;42.43;40.23;;;28.10;56.50;;;;;;4956084;28;20463;-71
2022/08/01 10:41:26;;;;;;;40.00;38.10;;;28.40;55.40;;;;;;4961916;28;20525;-69
2022/08/01 10:43:53;;;;;;;39.60;37.60;;;28.70;54.80;;;;;;4960248;28;20476;-72
2022/08/01 10:46:21;;;;;;;52.20;49.70;;;28.80;54.00;;;;;;4956771;28;21250;-71
2022/08/01 10:49:03;;;;;;;42.10;40.20;;;28.60;54.60;;;;;;4963413;28;20914;-70
2022/08/01 10:51:30;;;;;;;45.00;42.67;;;28.40;54.90;;;;;;4963943;28;21007;-72
2022/08/01 10:54:01;;;;;;;49.13;46.93;;;28.20;55.50;;;;;;4964675;28;20957;-72
2022/08/01 10:56:43;;;;;;;38.43;36.63;;;27.80;56.20;;;;;;4960918;28;20911;-71
2022/08/01 10:59:10;;;;;;;54.10;51.50;;;27.60;56.40;;;;;;4961689;28;20483;-72
2022/08/01 11:01:37;;;;;;;40.67;38.67;;;27.30;57.10;;;;;;4966200;28;20837;-71
2022/08/01 11:04:07;;;;;;;47.97;45.57;;;27.30;57.50;;;;;;4960979;28;20526;-69
2022/08/01 11:06:55;;;;;;;51.50;48.47;;;27.30;57.50;;;;;;4958281;28;20481;-69
2022/08/01 11:09:27;;;;;;;47.03;44.87;;;27.50;57.10;;;;;;4958090;28;20574;-71
2022/08/01 11:12:08;;;;;;;43.97;41.87;;;27.70;56.50;;;;;;4960769;28;20477;-69
2022/08/01 11:15:07;;;;;;;45.33;43.13;;;28.00;56.20;;;;;;4959531;28;20467;-69
2022/08/01 11:17:35;;;;;;;42.60;40.60;;;28.50;57.10;;;;;;4959239;28;20470;-71
2022/08/01 11:20:07;;;;;;;52.63;50.13;;;29.00;55.20;;;;;;4961075;28;20484;-70
2022/08/01 11:23:23;;;;;;;49.50;47.10;;;29.30;52.90;;;;;;4968094;28;20522;-71
2022/08/01 11:26:20;;;;;;;47.37;45.13;;;29.10;53.00;;;;;;4969069;28;20570;-70
2022/08/01 11:29:18;;;;;;;59.77;56.90;;;28.50;53.60;;;;;;4970672;28;20490;-71
2022/08/01 11:31:45;;;;;;;44.30;41.70;;;28.30;54.10;;;;;;4960679;28;20463;-69
2022/08/01 11:34:13;;;;;;;43.53;41.10;;;28.30;54.80;;;;;;4968258;28;22164;-70
2022/08/01 11:36:39;;;;;;;39.47;37.37;;;28.40;54.40;;;;;;4969727;28;20585;-68
2022/08/01 11:39:18;;;;;;;40.90;39.00;;;28.70;53.80;;;;;;4972652;28;20485;-70
2022/08/01 11:41:49;;;;;;;40.70;38.77;;;28.60;53.60;;;;;;4965598;28;20462;-70
2022/08/01 11:44:25;;;;;;;37.83;36.10;;;28.50;53.90;;;;;;4967424;28;20469;-67
2022/08/01 11:46:59;;;;;;;53.13;50.70;;;28.60;53.50;;;;;;4968412;28;20486;-68
2022/08/01 11:49:33;;;;;;;49.10;46.80;;;28.70;53.50;;;;;;4965195;28;20582;-70
2022/08/01 11:52:06;;;;;;;46.43;44.30;;;28.90;53.40;;;;;;4959110;28;21188;-67
2022/08/01 11:54:34;;;;;;;45.50;43.30;;;29.10;52.30;;;;;;4961379;28;20533;-69
2022/08/01 11:57:04;;;;;;;39.73;37.90;;;28.80;52.40;;;;;;4965720;28;20475;-69
2022/08/01 11:59:39;;;;;;;47.70;45.60;;;28.50;53.10;;;;;;4963599;28;20486;-70
2022/08/01 12:02:17;;;;;;;57.57;54.87;;;28.60;53.10;;;;;;4964057;28;20836;-68
2022/08/01 12:04:54;;;;;;;61.20;58.43;;;28.40;53.20;;;;;;4960491;28;20463;-69
2022/08/01 12:07:22;;;;;;;47.03;44.97;;;28.20;53.40;;;;;;4960595;28;20902;-70
2022/08/01 12:09:57;;;;;;;61.10;58.20;;;28.30;54.00;;;;;;4961269;28;20499;-69
2022/08/01 12:12:24;;;;;;;49.90;47.50;;;28.40;53.80;;;;;;4966749;28;20557;-69
2022/08/01 12:14:56;;;;;;;47.97;45.87;;;28.60;53.40;;;;;;4963797;28;20534;-69
2022/08/01 12:17:34;;;;;;;49.50;47.00;;;28.60;52.90;;;;;;4965197;28;20890;-69
2022/08/01 12:20:04;;;;;;;55.10;52.53;;;28.70;52.60;;;;;;4967955;28;20566;-69
2022/08/01 12:22:31;;;;;;;52.90;50.33;;;28.80;52.40;;;;;;4965953;28;20466;-69
2022/08/01 12:25:07;;;;;;;39.17;37.27;;;28.90;52.30;;;;;;4963958;28;20463;-69
2022/08/01 12:27:34;;;;;;;41.07;39.07;;;29.00;52.00;;;;;;4963284;28;20463;-69
2022/08/01 12:30:05;;;;;;;46.80;44.60;;;28.90;51.40;;;;;;4968235;28;20634;-67
2022/08/01 12:32:35;;;;;;;56.63;54.13;;;28.60;52.10;;;;;;4966719;28;20534;-67
2022/08/01 12:35:05;;;;;;;42.90;40.80;;;28.50;52.30;;;;;;4963147;28;20462;-67
2022/08/01 12:37:33;;;;;;;35.80;34.20;;;28.60;52.20;;;;;;4961310;28;21075;-70
2022/08/01 12:40:00;;;;;;;43.87;41.80;;;28.70;52.20;;;;;;4967243;28;20553;-69
2022/08/01 12:42:28;;;;;;;36.87;35.07;;;28.70;52.60;;;;;;4969229;28;20542;-68